Friday, October 19, 2018, 10:46 PM GMT
Back to Local

CYMX, Montreal / Mirabel

Location: , , Canada Lat: 45.683
Local Time: 10:46 PM GMT (22:46 GMT) Lon: -74.033
Time Zone: GMT Elev: 269 ft

Show me the last for .
Show Decoded

2018-10-19 22:00 METAR CYMX 192200Z 23006G21KT 25SM SCT160 OVC220 13/07 A2974 RMK AC4CI4 SLP075
                 DENSITY ALT 400FT =
2018-10-19 21:00 METAR CYMX 192100Z 23008G20KT 210V270 45SM FEW150 BKN260 15/07 A2975 RMK AC2CI5
                 SLP080 DENSITY ALT 500FT =
2018-10-19 20:00 METAR CYMX 192000Z 22016G25KT 45SM FEW080 FEW220 SCT260 16/06 A2975 RMK
                 AC1CI1CI3 AC TR SLP078 DENSITY ALT 700FT =
2018-10-19 19:00 METAR CYMX 191900Z 22012G23KT 190V250 45SM FEW035 FEW220 BKN260 15/06 A2978 RMK
                 SC1CI1CI4 SC TR PRESFR SLP088 DENSITY ALT 600FT =
2018-10-19 18:00 METAR CYMX 191800Z 22013G22KT 45SM FEW030 FEW250 15/05 A2982 RMK CF1CI1 CF TR CI
                 TR SLP101 DENSITY ALT 500FT =
2018-10-19 17:00 METAR CYMX 191700Z 26011G23KT 190V280 45SM FEW020 13/04 A2986 RMK CF1 CF TR
                 SLP115 =
2018-10-19 16:00 METAR CYMX 191600Z CCA 22014G20KT 190V260 45SM FEW031 BKN260 11/04 A2990 RMK
                 SC2CI3 SLP128 =
2018-10-19 15:00 METAR CYMX 191500Z 22013G23KT 45SM FEW020 FEW260 10/03 A2993 RMK CF1CI1 CF TR
                 SLP138 =
2018-10-19 14:00 METAR CYMX 191400Z 23011G19KT 200V280 45SM FEW020 FEW260 07/02 A2996 RMK CF1CI1
                 CF TR SLP151 =
2018-10-19 13:00 METAR CYMX 191300Z 23008KT 45SM FEW220 FEW250 05/01 A2999 RMK CI1CI1 SLP161 =
2018-10-19 12:00 METAR CYMX 191200Z 22007KT 45SM FEW062 FEW220 FEW250 03/M01 A3001 RMK SC1CI1CI1
                 SC TR SLP166 =
2018-10-19 11:00 METAR CYMX 191100Z 22005KT 35SM FEW100 SCT220 02/M01 A3002 RMK AC1CI2 SLP171 =
2018-10-19 10:00 METAR CYMX 191000Z 21006KT 25SM SCT062 BKN220 02/M01 A3003 RMK SC3CI4 SLP175 =
2018-10-19 09:00 METAR CYMX 190900Z 21006KT 25SM SCT063 BKN200 02/M01 A3004 RMK SC4CI2 SLP179 =
2018-10-19 08:00 METAR CYMX 190800Z 21006KT 25SM OVC064 03/M01 A3006 RMK SC8 SLP184 =
2018-10-19 07:00 METAR CYMX 190700Z 20005KT 25SM OVC063 03/M02 A3008 RMK SC8 SLP192 =
2018-10-19 06:00 METAR CYMX 190600Z 21004KT 25SM OVC064 03/M02 A3011 RMK SC8 SLP200 =
2018-10-19 05:00 METAR CYMX 190500Z 22005KT 200V270 25SM SCT050 OVC068 03/M03 A3013 RMK SC4AC4
                 SLP207 =
2018-10-19 04:00 METAR CYMX 190400Z 23007KT 200V270 25SM BKN041 OVC075 03/M05 A3015 RMK SC5AC3
                 SLP214 =
2018-10-19 03:00 METAR CYMX 190300Z 21004KT 25SM OVC075 02/M06 A3017 RMK AC8 SLP221 =
2018-10-19 02:00 METAR CYMX 190200Z 23003KT 190V260 25SM OVC083 02/M06 A3018 RMK AC8 SLP225 =
2018-10-19 01:00 METAR CYMX 190100Z 24003KT 200V280 25SM OVC075 02/M07 A3019 RMK AC8 SLP228 =
2018-10-19 00:00 METAR CYMX 190000Z 25005KT 210V280 25SM FEW080 BKN100 02/M08 A3020 RMK AC2AC4
                 SLP232 =
2018-10-18 23:00 METAR CYMX 182300Z 24008KT 210V300 25SM FEW110 FEW260 02/M08 A3021 RMK AC1CI1 CI
                 TR SLP237 =

Support USWX by starting your Amazon purchase here.